www.cux-wetter.de
Wetterdaten: Sonntag, 14.09.2008
Datum Zeit Temp. A. Feuchte A. Luftdruck Regen Wind Richtung Richtung Sonnenschein Solar Taupunkt Windchill Windben
14.09.2008 00:04 12,1 C 79 % 1024,5 hPa 0,0 l/m 10,1 km/h (2 Bft) O-NO 75 0 min 0 W/m 8,6 C 9,9 C 10,1 km/h (2 Bft)
14.09.2008 00:09 12,0 C 80 % 1024,5 hPa 0,0 l/m 13,1 km/h (3 Bft) O-SO 110 0 min 0 W/m 8,7 C 8,3 C 13,1 km/h (3 Bft)
14.09.2008 00:14 11,9 C 80 % 1024,5 hPa 0,0 l/m 15,2 km/h (3 Bft) O-SO 105 0 min 0 W/m 8,6 C 7,4 C 15,2 km/h (3 Bft)
14.09.2008 00:19 11,9 C 80 % 1024,5 hPa 0,0 l/m 14,1 km/h (3 Bft) O 100 0 min 0 W/m 8,6 C 7,8 C 14,1 km/h (3 Bft)
14.09.2008 00:24 11,9 C 80 % 1024,5 hPa 0,0 l/m 18,3 km/h (3 Bft) O-SO 115 0 min 0 W/m 8,6 C 6,3 C 18,3 km/h (3 Bft)
14.09.2008 00:29 11,9 C 80 % 1024,5 hPa 0,0 l/m 8,7 km/h (2 Bft) O-SO 120 0 min 0 W/m 8,6 C 10,4 C 8,7 km/h (2 Bft)
14.09.2008 00:34 11,8 C 81 % 1024,5 hPa 0,0 l/m 13,2 km/h (3 Bft) O 85 0 min 0 W/m 8,6 C 8,1 C 13,2 km/h (3 Bft)
14.09.2008 00:39 11,8 C 81 % 1024,5 hPa 0,0 l/m 13,5 km/h (3 Bft) SO 140 0 min 0 W/m 8,6 C 7,9 C 13,5 km/h (3 Bft)
14.09.2008 00:44 11,6 C 81 % 1024,5 hPa 0,0 l/m 14,3 km/h (3 Bft) O-SO 105 0 min 0 W/m 8,5 C 7,4 C 14,3 km/h (3 Bft)
14.09.2008 00:50 11,6 C 82 % 1024,5 hPa 0,0 l/m 12,2 km/h (2 Bft) O 85 0 min 0 W/m 8,6 C 8,3 C 12,2 km/h (2 Bft)
14.09.2008 00:55 11,6 C 81 % 1024,5 hPa 0,0 l/m 16,3 km/h (3 Bft) O-SO 115 0 min 0 W/m 8,5 C 6,6 C 16,3 km/h (3 Bft)
14.09.2008 01:00 11,6 C 82 % 1024,5 hPa 0,0 l/m 16,3 km/h (3 Bft) O-SO 105 0 min 0 W/m 8,6 C 6,6 C 16,3 km/h (3 Bft)
14.09.2008 01:04 11,6 C 83 % 1024,5 hPa 0,0 l/m 14,8 km/h (3 Bft) SO 125 0 min 0 W/m 8,8 C 7,2 C 14,8 km/h (3 Bft)
14.09.2008 01:09 11,6 C 82 % 1024,5 hPa 0,0 l/m 8,6 km/h (2 Bft) SO 140 0 min 0 W/m 8,6 C 10,2 C 8,6 km/h (2 Bft)
14.09.2008 01:15 11,6 C 83 % 1024,5 hPa 0,0 l/m 18,8 km/h (3 Bft) SO 125 0 min 0 W/m 8,8 C 5,7 C 18,8 km/h (3 Bft)
14.09.2008 01:20 11,6 C 83 % 1024,5 hPa 0,0 l/m 18,0 km/h (3 Bft) O-SO 120 0 min 0 W/m 8,8 C 6,0 C 18,0 km/h (3 Bft)
14.09.2008 01:25 11,6 C 82 % 1024,5 hPa 0,0 l/m 12,0 km/h (2 Bft) O-SO 105 0 min 0 W/m 8,6 C 8,4 C 12,0 km/h (2 Bft)
14.09.2008 01:29 11,6 C 83 % 1024,5 hPa 0,0 l/m 21,0 km/h (4 Bft) O 100 0 min 0 W/m 8,8 C 5,1 C 21,0 km/h (4 Bft)
14.09.2008 01:34 11,6 C 83 % 1024,5 hPa 0,0 l/m 17,8 km/h (3 Bft) O-SO 115 0 min 0 W/m 8,8 C 6,1 C 17,8 km/h (3 Bft)
14.09.2008 01:39 11,6 C 83 % 1024,5 hPa 0,0 l/m 11,8 km/h (2 Bft) O 95 0 min 0 W/m 8,8 C 8,5 C 11,8 km/h (2 Bft)
14.09.2008 01:44 11,6 C 83 % 1024,5 hPa 0,0 l/m 17,5 km/h (3 Bft) O-SO 110 0 min 0 W/m 8,8 C 6,2 C 17,5 km/h (3 Bft)
14.09.2008 01:49 11,6 C 83 % 1024,5 hPa 0,0 l/m 10,3 km/h (2 Bft) O-SO 115 0 min 0 W/m 8,8 C 9,2 C 10,3 km/h (2 Bft)
14.09.2008 01:54 11,5 C 83 % 1024,5 hPa 0,0 l/m 15,3 km/h (3 Bft) O 95 0 min 0 W/m 8,7 C 6,8 C 15,3 km/h (3 Bft)
14.09.2008 01:59 11,5 C 83 % 1024,5 hPa 0,0 l/m 12,2 km/h (2 Bft) NO 50 0 min 0 W/m 8,7 C 8,1 C 12,2 km/h (2 Bft)
14.09.2008 02:05 11,4 C 83 % 1024,5 hPa 0,0 l/m 15,0 km/h (3 Bft) O-SO 110 0 min 0 W/m 8,6 C 6,8 C 15,0 km/h (3 Bft)
14.09.2008 02:09 11,4 C 83 % 1024,5 hPa 0,0 l/m 11,4 km/h (2 Bft) O 80 0 min 0 W/m 8,6 C 8,4 C 11,4 km/h (2 Bft)
14.09.2008 02:14 11,4 C 83 % 1024,5 hPa 0,0 l/m 11,2 km/h (2 Bft) O 100 0 min 0 W/m 8,6 C 8,5 C 11,2 km/h (2 Bft)
14.09.2008 02:19 11,4 C 83 % 1024,5 hPa 0,0 l/m 12,1 km/h (2 Bft) O-NO 75 0 min 0 W/m 8,6 C 8,1 C 12,1 km/h (2 Bft)
14.09.2008 02:24 11,3 C 82 % 1024,5 hPa 0,0 l/m 8,9 km/h (2 Bft) O-SO 105 0 min 0 W/m 8,3 C 9,7 C 8,9 km/h (2 Bft)
14.09.2008 02:29 11,3 C 82 % 1024,5 hPa 0,0 l/m 15,6 km/h (3 Bft) O 95 0 min 0 W/m 8,3 C 6,5 C 15,6 km/h (3 Bft)
14.09.2008 02:35 11,3 C 82 % 1024,5 hPa 0,0 l/m 15,3 km/h (3 Bft) O-SO 120 0 min 0 W/m 8,3 C 6,6 C 15,3 km/h (3 Bft)
14.09.2008 02:40 11,3 C 82 % 1024,5 hPa 0,0 l/m 10,8 km/h (2 Bft) O-SO 120 0 min 0 W/m 8,3 C 8,6 C 10,8 km/h (2 Bft)
14.09.2008 02:45 11,3 C 83 % 1024,5 hPa 0,0 l/m 2,8 km/h (1 Bft) O 95 0 min 0 W/m 8,5 C 11,3 C 2,8 km/h (1 Bft)
14.09.2008 02:49 11,3 C 82 % 1024,5 hPa 0,0 l/m 13,6 km/h (3 Bft) O 85 0 min 0 W/m 8,3 C 7,3 C 13,6 km/h (3 Bft)
14.09.2008 02:54 11,3 C 82 % 1024,5 hPa 0,0 l/m 12,5 km/h (2 Bft) O-SO 120 0 min 0 W/m 8,3 C 7,8 C 12,5 km/h (2 Bft)
14.09.2008 02:59 11,2 C 82 % 1024,5 hPa 0,0 l/m 9,6 km/h (2 Bft) O-SO 110 0 min 0 W/m 8,2 C 9,1 C 9,6 km/h (2 Bft)
14.09.2008 03:04 11,2 C 82 % 1024,5 hPa 0,0 l/m 7,5 km/h (2 Bft) O-SO 110 0 min 0 W/m 8,2 C 10,4 C 7,5 km/h (2 Bft)
14.09.2008 03:10 11,0 C 82 % 1024,5 hPa 0,0 l/m 9,4 km/h (2 Bft) O 100 0 min 0 W/m 8,0 C 9,0 C 9,4 km/h (2 Bft)
14.09.2008 03:15 10,9 C 82 % 1024,5 hPa 0,0 l/m 8,5 km/h (2 Bft) O 100 0 min 0 W/m 7,9 C 9,5 C 8,5 km/h (2 Bft)
14.09.2008 03:19 10,8 C 83 % 1024,5 hPa 0,0 l/m 8,3 km/h (2 Bft) S-SO 160 0 min 0 W/m 8,0 C 9,5 C 8,3 km/h (2 Bft)
14.09.2008 03:24 10,8 C 83 % 1024,5 hPa 0,0 l/m 6,1 km/h (2 Bft) O-NO 75 0 min 0 W/m 8,0 C 10,8 C 6,1 km/h (2 Bft)
14.09.2008 03:29 10,7 C 83 % 1024,5 hPa 0,0 l/m 4,2 km/h (1 Bft) O-NO 70 0 min 0 W/m 7,9 C 10,7 C 4,2 km/h (1 Bft)
14.09.2008 03:34 10,4 C 83 % 1024,5 hPa 0,0 l/m 3,9 km/h (1 Bft) O 95 0 min 0 W/m 7,6 C 10,4 C 3,9 km/h (1 Bft)
14.09.2008 03:39 10,4 C 83 % 1024,5 hPa 0,0 l/m 5,1 km/h (1 Bft) O 90 0 min 0 W/m 7,6 C 10,4 C 5,1 km/h (1 Bft)
14.09.2008 03:44 10,3 C 83 % 1024,5 hPa 0,0 l/m 3,7 km/h (1 Bft) O 85 0 min 0 W/m 7,5 C 10,3 C 3,7 km/h (1 Bft)
14.09.2008 03:49 10,3 C 84 % 1025,5 hPa 0,0 l/m 9,9 km/h (2 Bft) O-SO 110 0 min 0 W/m 7,7 C 8,0 C 9,9 km/h (2 Bft)
14.09.2008 03:55 10,4 C 85 % 1025,5 hPa 0,0 l/m 10,0 km/h (2 Bft) O-NO 60 0 min 0 W/m 8,0 C 8,0 C 10,0 km/h (2 Bft)
14.09.2008 04:00 10,6 C 85 % 1025,5 hPa 0,0 l/m 12,3 km/h (2 Bft) SO 125 0 min 0 W/m 8,2 C 7,1 C 12,3 km/h (2 Bft)
14.09.2008 04:04 10,7 C 85 % 1025,5 hPa 0,0 l/m 10,3 km/h (2 Bft) O 95 0 min 0 W/m 8,3 C 8,2 C 10,3 km/h (2 Bft)
14.09.2008 04:09 10,8 C 85 % 1025,5 hPa 0,0 l/m 14,1 km/h (3 Bft) O 90 0 min 0 W/m 8,4 C 6,5 C 14,1 km/h (3 Bft)
14.09.2008 04:14 10,9 C 85 % 1025,5 hPa 0,0 l/m 8,3 km/h (2 Bft) O-NO 65 0 min 0 W/m 8,5 C 9,6 C 8,3 km/h (2 Bft)
14.09.2008 04:20 10,9 C 85 % 1025,5 hPa 0,0 l/m 8,8 km/h (2 Bft) O 85 0 min 0 W/m 8,5 C 9,3 C 8,8 km/h (2 Bft)
14.09.2008 04:25 10,8 C 85 % 1025,5 hPa 0,0 l/m 11,1 km/h (2 Bft) O-SO 115 0 min 0 W/m 8,4 C 7,9 C 11,1 km/h (2 Bft)
14.09.2008 04:30 10,9 C 85 % 1025,5 hPa 0,0 l/m 1,9 km/h (1 Bft) NO 45 0 min 0 W/m 8,5 C 10,9 C 1,9 km/h (1 Bft)
14.09.2008 04:34 11,0 C 85 % 1025,5 hPa 0,0 l/m 8,7 km/h (2 Bft) O-SO 120 0 min 0 W/m 8,6 C 9,5 C 8,7 km/h (2 Bft)
14.09.2008 04:39 11,0 C 85 % 1025,5 hPa 0,0 l/m 1,0 km/h (0 Bft) O-NO 70 0 min 0 W/m 8,6 C 11,0 C 1,0 km/h (0 Bft)
14.09.2008 04:44 11,1 C 85 % 1025,5 hPa 0,0 l/m 9,8 km/h (2 Bft) NO 55 0 min 0 W/m 8,7 C 8,9 C 9,8 km/h (2 Bft)
14.09.2008 04:49 11,2 C 85 % 1025,5 hPa 0,0 l/m 15,8 km/h (3 Bft) O 85 0 min 0 W/m 8,8 C 6,3 C 15,8 km/h (3 Bft)
14.09.2008 04:54 11,2 C 84 % 1025,5 hPa 0,0 l/m 3,0 km/h (1 Bft) O 80 0 min 0 W/m 8,6 C 11,2 C 3,0 km/h (1 Bft)
14.09.2008 04:59 11,2 C 84 % 1025,5 hPa 0,0 l/m 8,5 km/h (2 Bft) O 85 0 min 0 W/m 8,6 C 9,8 C 8,5 km/h (2 Bft)
14.09.2008 05:04 11,2 C 84 % 1025,5 hPa 0,0 l/m 5,4 km/h (2 Bft) O-NO 65 0 min 0 W/m 8,6 C 11,2 C 5,4 km/h (2 Bft)
14.09.2008 05:09 11,1 C 84 % 1025,5 hPa 0,0 l/m 3,5 km/h (1 Bft) NO 50 0 min 0 W/m 8,5 C 11,1 C 3,5 km/h (1 Bft)
14.09.2008 05:14 11,1 C 84 % 1025,5 hPa 0,0 l/m 7,7 km/h (2 Bft) O-NO 60 0 min 0 W/m 8,5 C 10,2 C 7,7 km/h (2 Bft)
14.09.2008 05:19 11,1 C 84 % 1025,5 hPa 0,0 l/m 8,5 km/h (2 Bft) O-NO 70 0 min 0 W/m 8,5 C 9,7 C 8,5 km/h (2 Bft)
14.09.2008 05:24 11,0 C 84 % 1025,5 hPa 0,0 l/m 0,9 km/h (0 Bft) O-NO 75 0 min 0 W/m 8,4 C 11,0 C 0,9 km/h (0 Bft)
14.09.2008 05:29 11,0 C 84 % 1025,5 hPa 0,0 l/m 1,0 km/h (0 Bft) O 90 0 min 0 W/m 8,4 C 11,0 C 1,0 km/h (0 Bft)
14.09.2008 05:34 11,0 C 84 % 1025,5 hPa 0,0 l/m 6,3 km/h (2 Bft) NO 35 0 min 0 W/m 8,4 C 11,0 C 6,3 km/h (2 Bft)
14.09.2008 05:40 10,9 C 84 % 1025,5 hPa 0,0 l/m 5,8 km/h (2 Bft) O-NO 60 0 min 0 W/m 8,3 C 10,9 C 5,8 km/h (2 Bft)
14.09.2008 05:45 10,8 C 84 % 1025,5 hPa 0,0 l/m 1,5 km/h (1 Bft) N-NO 15 0 min 0 W/m 8,2 C 10,8 C 1,5 km/h (1 Bft)
14.09.2008 05:50 10,8 C 85 % 1025,5 hPa 0,0 l/m 6,1 km/h (2 Bft) O-SO 115 0 min 0 W/m 8,4 C 10,8 C 6,1 km/h (2 Bft)
14.09.2008 05:54 10,8 C 85 % 1025,5 hPa 0,0 l/m 7,7 km/h (2 Bft) O-NO 65 0 min 0 W/m 8,4 C 9,9 C 7,7 km/h (2 Bft)
14.09.2008 05:59 10,6 C 85 % 1025,5 hPa 0,0 l/m 7,9 km/h (2 Bft) O 95 0 min 0 W/m 8,2 C 9,5 C 7,9 km/h (2 Bft)
14.09.2008 06:04 10,6 C 85 % 1025,5 hPa 0,0 l/m 0,7 km/h (0 Bft) N 5 0 min 0 W/m 8,2 C 10,6 C 0,7 km/h (0 Bft)
14.09.2008 06:10 10,6 C 85 % 1025,5 hPa 0,0 l/m 6,9 km/h (2 Bft) SO 130 0 min 0 W/m 8,2 C 10,3 C 6,9 km/h (2 Bft)
14.09.2008 06:15 10,6 C 86 % 1025,5 hPa 0,0 l/m 8,5 km/h (2 Bft) O 80 0 min 0 W/m 8,4 C 9,2 C 8,5 km/h (2 Bft)
14.09.2008 06:20 10,6 C 86 % 1025,5 hPa 0,0 l/m 12,3 km/h (2 Bft) O-SO 105 0 min 0 W/m 8,4 C 7,1 C 12,3 km/h (2 Bft)
14.09.2008 06:24 10,6 C 86 % 1025,5 hPa 0,0 l/m 8,0 km/h (2 Bft) O 80 0 min 0 W/m 8,4 C 9,5 C 8,0 km/h (2 Bft)
14.09.2008 06:29 10,5 C 85 % 1025,5 hPa 0,0 l/m 0,9 km/h (0 Bft) O 80 0 min 0 W/m 8,1 C 10,5 C 0,9 km/h (0 Bft)
14.09.2008 06:34 10,3 C 85 % 1025,5 hPa 0,0 l/m 0,6 km/h (0 Bft) O-NO 75 0 min 0 W/m 7,9 C 10,3 C 0,6 km/h (0 Bft)
14.09.2008 06:39 10,3 C 85 % 1025,5 hPa 0,0 l/m 3,7 km/h (1 Bft) N-NO 20 0 min 0 W/m 7,9 C 10,3 C 3,7 km/h (1 Bft)
14.09.2008 06:44 10,2 C 86 % 1025,5 hPa 0,0 l/m 5,7 km/h (2 Bft) NO 45 0 min 0 W/m 8,0 C 10,2 C 5,7 km/h (2 Bft)
14.09.2008 06:49 10,2 C 86 % 1025,5 hPa 0,0 l/m 1,6 km/h (1 Bft) O-NO 75 0 min 0 W/m 8,0 C 10,2 C 1,6 km/h (1 Bft)
14.09.2008 06:55 10,2 C 86 % 1025,5 hPa 0,0 l/m 0,7 km/h (0 Bft) O 90 0 min 0 W/m 8,0 C 10,2 C 0,7 km/h (0 Bft)
14.09.2008 07:00 10,3 C 86 % 1025,5 hPa 0,0 l/m 6,0 km/h (2 Bft) O 95 0 min 0 W/m 8,1 C 10,3 C 6,0 km/h (2 Bft)
14.09.2008 07:04 10,3 C 86 % 1025,5 hPa 0,0 l/m 1,3 km/h (1 Bft) O 85 0 min 0 W/m 8,1 C 10,3 C 1,3 km/h (1 Bft)
14.09.2008 07:09 10,3 C 86 % 1025,5 hPa 0,0 l/m 2,1 km/h (1 Bft) O-SO 115 0 min 0 W/m 8,1 C 10,3 C 2,1 km/h (1 Bft)
14.09.2008 07:14 10,2 C 86 % 1025,5 hPa 0,0 l/m 0,3 km/h (0 Bft) O 95 0 min 0 W/m 8,0 C 10,2 C 0,3 km/h (0 Bft)
14.09.2008 07:19 10,1 C 86 % 1025,5 hPa 0,0 l/m 0,3 km/h (0 Bft) O-SO 120 0 min 0 W/m 7,9 C 10,1 C 0,3 km/h (0 Bft)
14.09.2008 07:25 10,1 C 86 % 1025,5 hPa 0,0 l/m 0,0 km/h (0 Bft) O-SO 120 0 min 0 W/m 7,9 C 10,1 C 0,0 km/h (0 Bft)
14.09.2008 07:30 9,8 C 86 % 1025,5 hPa 0,0 l/m 2,5 km/h (1 Bft) O-SO 120 0 min 0 W/m 7,6 C 9,8 C 2,5 km/h (1 Bft)
14.09.2008 07:34 9,8 C 86 % 1025,5 hPa 0,0 l/m 0,1 km/h (0 Bft) O-SO 120 0 min 0 W/m 7,6 C 9,8 C 0,1 km/h (0 Bft)
14.09.2008 07:39 9,8 C 86 % 1025,5 hPa 0,0 l/m 0,0 km/h (0 Bft) O-SO 115 0 min 0 W/m 7,6 C 9,8 C 0,0 km/h (0 Bft)
14.09.2008 07:44 9,7 C 86 % 1026,5 hPa 0,0 l/m 0,0 km/h (0 Bft) O-SO 115 0 min 0 W/m 7,5 C 9,7 C 0,0 km/h (0 Bft)
14.09.2008 07:49 9,7 C 86 % 1026,5 hPa 0,0 l/m 2,7 km/h (1 Bft) NO 55 0 min 0 W/m 7,5 C 9,7 C 2,7 km/h (1 Bft)
14.09.2008 07:54 9,7 C 86 % 1026,5 hPa 0,0 l/m 3,9 km/h (1 Bft) NO 35 0 min 0 W/m 7,5 C 9,7 C 3,9 km/h (1 Bft)
14.09.2008 07:59 9,9 C 87 % 1026,5 hPa 0,0 l/m 4,3 km/h (1 Bft) N-NO 15 0 min 0 W/m 7,8 C 9,9 C 4,3 km/h (1 Bft)
14.09.2008 08:04 10,0 C 87 % 1026,5 hPa 0,0 l/m 6,3 km/h (2 Bft) N-NO 25 0 min 0 W/m 7,9 C 10,0 C 6,3 km/h (2 Bft)
14.09.2008 08:09 10,3 C 88 % 1026,5 hPa 0,0 l/m 6,0 km/h (2 Bft) NO 50 0 min 0 W/m 8,4 C 10,3 C 6,0 km/h (2 Bft)
14.09.2008 08:14 10,4 C 87 % 1026,5 hPa 0,0 l/m 1,1 km/h (1 Bft) N-NO 25 0 min 0 W/m 8,3 C 10,4 C 1,1 km/h (1 Bft)
14.09.2008 08:19 10,5 C 88 % 1026,5 hPa 0,0 l/m 5,2 km/h (1 Bft) NO 50 0 min 0 W/m 8,6 C 10,5 C 5,2 km/h (1 Bft)
14.09.2008 08:24 10,7 C 88 % 1026,5 hPa 0,0 l/m 1,0 km/h (0 Bft) N-NW 345 0 min 0 W/m 8,8 C 10,7 C 1,0 km/h (0 Bft)
14.09.2008 08:29 10,9 C 88 % 1026,5 hPa 0,0 l/m 7,1 km/h (2 Bft) NO 40 0 min 0 W/m 9,0 C 10,4 C 7,1 km/h (2 Bft)
14.09.2008 08:35 10,9 C 88 % 1026,5 hPa 0,0 l/m 6,0 km/h (2 Bft) NO 55 0 min 0 W/m 9,0 C 10,9 C 6,0 km/h (2 Bft)
14.09.2008 08:40 11,1 C 88 % 1026,5 hPa 0,0 l/m 6,6 km/h (2 Bft) N-NO 30 0 min 0 W/m 9,2 C 11,0 C 6,6 km/h (2 Bft)
14.09.2008 08:44 11,1 C 88 % 1026,5 hPa 0,0 l/m 0,4 km/h (0 Bft) S 185 0 min 0 W/m 9,2 C 11,1 C 0,4 km/h (0 Bft)
14.09.2008 08:49 11,1 C 88 % 1026,5 hPa 0,0 l/m 1,0 km/h (0 Bft) N-NW 345 0 min 0 W/m 9,2 C 11,1 C 1,0 km/h (0 Bft)
14.09.2008 08:54 11,3 C 88 % 1026,5 hPa 0,0 l/m 3,4 km/h (1 Bft) NO 35 0 min 0 W/m 9,4 C 11,3 C 3,4 km/h (1 Bft)
14.09.2008 08:59 11,4 C 87 % 1026,5 hPa 0,0 l/m 6,1 km/h (2 Bft) O-NO 70 0 min 0 W/m 9,3 C 11,4 C 6,1 km/h (2 Bft)
14.09.2008 09:04 11,4 C 87 % 1026,5 hPa 0,0 l/m 7,4 km/h (2 Bft) O-NO 70 0 min 0 W/m 9,3 C 10,7 C 7,4 km/h (2 Bft)
14.09.2008 09:09 11,6 C 87 % 1026,5 hPa 0,0 l/m 5,1 km/h (1 Bft) N-NO 20 0 min 0 W/m 9,5 C 11,6 C 5,1 km/h (1 Bft)
14.09.2008 09:14 11,7 C 87 % 1026,5 hPa 0,0 l/m 6,2 km/h (2 Bft) N-NO 30 0 min 0 W/m 9,6 C 11,7 C 6,2 km/h (2 Bft)
14.09.2008 09:19 11,8 C 86 % 1026,5 hPa 0,0 l/m 5,1 km/h (1 Bft) NO 50 0 min 0 W/m 9,5 C 11,8 C 5,1 km/h (1 Bft)
14.09.2008 09:24 11,8 C 86 % 1026,5 hPa 0,0 l/m 4,3 km/h (1 Bft) NO 55 0 min 0 W/m 9,5 C 11,8 C 4,3 km/h (1 Bft)
14.09.2008 09:29 11,9 C 85 % 1026,5 hPa 0,0 l/m 1,6 km/h (1 Bft) O-NO 65 0 min 0 W/m 9,5 C 11,9 C 1,6 km/h (1 Bft)
14.09.2008 09:34 11,9 C 85 % 1026,5 hPa 0,0 l/m 11,0 km/h (2 Bft) NO 55 0 min 0 W/m 9,5 C 9,2 C 11,0 km/h (2 Bft)
14.09.2008 09:40 11,9 C 85 % 1026,5 hPa 0,0 l/m 8,7 km/h (2 Bft) O-SO 115 0 min 0 W/m 9,5 C 10,4 C 8,7 km/h (2 Bft)
14.09.2008 09:45 12,0 C 85 % 1026,5 hPa 0,0 l/m 17,9 km/h (3 Bft) O-NO 70 0 min 0 W/m 9,6 C 6,5 C 17,9 km/h (3 Bft)
14.09.2008 09:49 12,0 C 84 % 1026,5 hPa 0,0 l/m 12,8 km/h (3 Bft) NO 50 0 min 0 W/m 9,4 C 8,5 C 12,8 km/h (3 Bft)
14.09.2008 09:54 12,1 C 84 % 1026,5 hPa 0,0 l/m 13,3 km/h (3 Bft) O 80 0 min 0 W/m 9,5 C 8,4 C 13,3 km/h (3 Bft)
14.09.2008 09:59 12,2 C 83 % 1026,5 hPa 0,0 l/m 14,3 km/h (3 Bft) O-NO 70 0 min 0 W/m 9,4 C 8,1 C 14,3 km/h (3 Bft)
14.09.2008 10:04 12,4 C 82 % 1026,5 hPa 0,0 l/m 8,1 km/h (2 Bft) O-NO 75 0 min 0 W/m 9,4 C 11,3 C 8,1 km/h (2 Bft)
14.09.2008 10:10 12,6 C 82 % 1026,5 hPa 0,0 l/m 14,8 km/h (3 Bft) O 95 0 min 0 W/m 9,6 C 8,4 C 14,8 km/h (3 Bft)
14.09.2008 10:14 13,0 C 81 % 1026,5 hPa 0,0 l/m 3,9 km/h (1 Bft) NO 45 0 min 0 W/m 9,8 C 13,0 C 3,9 km/h (1 Bft)
14.09.2008 10:19 13,5 C 79 % 1026,5 hPa 0,0 l/m 8,6 km/h (2 Bft) N 360 0 min 0 W/m 9,9 C 12,2 C 8,6 km/h (2 Bft)
14.09.2008 10:24 13,8 C 80 % 1026,5 hPa 0,0 l/m 12,0 km/h (2 Bft) O-NO 75 0 min 0 W/m 10,4 C 10,9 C 12,0 km/h (2 Bft)
14.09.2008 10:29 14,2 C 75 % 1026,5 hPa 0,0 l/m 12,9 km/h (3 Bft) O-NO 75 0 min 0 W/m 9,8 C 11,0 C 12,9 km/h (3 Bft)
14.09.2008 10:34 15,0 C 76 % 1026,5 hPa 0,0 l/m 11,8 km/h (2 Bft) O-SO 115 0 min 0 W/m 10,8 C 12,4 C 11,8 km/h (2 Bft)
14.09.2008 10:39 15,6 C 73 % 1026,5 hPa 0,0 l/m 8,7 km/h (2 Bft) O-NO 65 0 min 0 W/m 10,8 C 14,4 C 8,7 km/h (2 Bft)
14.09.2008 10:45 15,7 C 71 % 1026,5 hPa 0,0 l/m 8,9 km/h (2 Bft) O-NO 75 0 min 0 W/m 10,5 C 14,4 C 8,9 km/h (2 Bft)
14.09.2008 10:50 15,8 C 69 % 1026,5 hPa 0,0 l/m 13,7 km/h (3 Bft) O-NO 75 0 min 0 W/m 10,1 C 12,6 C 13,7 km/h (3 Bft)
14.09.2008 10:55 15,9 C 69 % 1026,5 hPa 0,0 l/m 16,2 km/h (3 Bft) O 90 0 min 0 W/m 10,2 C 11,9 C 16,2 km/h (3 Bft)
14.09.2008 10:59 15,9 C 69 % 1026,5 hPa 0,0 l/m 10,3 km/h (2 Bft) O-NO 60 0 min 0 W/m 10,2 C 14,0 C 10,3 km/h (2 Bft)
14.09.2008 11:04 16,2 C 66 % 1026,5 hPa 0,0 l/m 12,8 km/h (3 Bft) NO 45 0 min 0 W/m 9,8 C 13,4 C 12,8 km/h (3 Bft)
14.09.2008 11:10 16,2 C 65 % 1026,5 hPa 0,0 l/m 17,3 km/h (3 Bft) O 95 0 min 0 W/m 9,6 C 12,0 C 17,3 km/h (3 Bft)
14.09.2008 11:15 16,3 C 65 % 1026,5 hPa 0,0 l/m 16,1 km/h (3 Bft) O-NO 60 0 min 0 W/m 9,7 C 12,4 C 16,1 km/h (3 Bft)
14.09.2008 11:20 16,5 C 64 % 1026,5 hPa 0,0 l/m 15,9 km/h (3 Bft) NO 55 0 min 0 W/m 9,7 C 12,7 C 15,9 km/h (3 Bft)
14.09.2008 11:24 16,2 C 64 % 1026,5 hPa 0,0 l/m 16,3 km/h (3 Bft) NO 45 0 min 0 W/m 9,4 C 12,3 C 16,3 km/h (3 Bft)
14.09.2008 11:29 16,4 C 64 % 1026,5 hPa 0,0 l/m 17,6 km/h (3 Bft) O-NO 75 0 min 0 W/m 9,6 C 12,2 C 17,6 km/h (3 Bft)
14.09.2008 11:34 16,6 C 63 % 1026,5 hPa 0,0 l/m 17,9 km/h (3 Bft) NO 40 0 min 0 W/m 9,5 C 12,3 C 17,9 km/h (3 Bft)
14.09.2008 11:39 16,8 C 62 % 1026,5 hPa 0,0 l/m 22,1 km/h (4 Bft) O-NO 70 0 min 0 W/m 9,5 C 11,6 C 22,1 km/h (4 Bft)
14.09.2008 11:44 17,2 C 60 % 1026,5 hPa 0,0 l/m 11,5 km/h (2 Bft) O 90 0 min 0 W/m 9,4 C 15,0 C 11,5 km/h (2 Bft)
14.09.2008 11:49 17,3 C 61 % 1026,5 hPa 0,0 l/m 17,1 km/h (3 Bft) O 95 0 min 0 W/m 9,7 C 13,4 C 17,1 km/h (3 Bft)
14.09.2008 11:55 17,3 C 59 % 1026,5 hPa 0,0 l/m 16,1 km/h (3 Bft) O 80 0 min 0 W/m 9,2 C 13,7 C 16,1 km/h (3 Bft)
14.09.2008 12:00 17,3 C 59 % 1026,5 hPa 0,0 l/m 17,5 km/h (3 Bft) O-NO 70 0 min 0 W/m 9,2 C 13,3 C 17,5 km/h (3 Bft)
14.09.2008 12:04 17,3 C 60 % 1026,5 hPa 0,0 l/m 13,2 km/h (3 Bft) NO 40 0 min 0 W/m 9,5 C 14,5 C 13,2 km/h (3 Bft)
14.09.2008 12:10 17,2 C 59 % 1026,5 hPa 0,0 l/m 14,0 km/h (3 Bft) O 80 0 min 0 W/m 9,1 C 14,2 C 14,0 km/h (3 Bft)
14.09.2008 12:14 17,1 C 61 % 1026,5 hPa 0,0 l/m 14,1 km/h (3 Bft) O-SO 115 0 min 0 W/m 9,5 C 14,0 C 14,1 km/h (3 Bft)
14.09.2008 12:19 17,1 C 61 % 1026,5 hPa 0,0 l/m 15,8 km/h (3 Bft) O 80 0 min 0 W/m 9,5 C 13,5 C 15,8 km/h (3 Bft)
14.09.2008 12:20 17,1 C 61 % 1026,5 hPa 0,0 l/m 15,8 km/h (3 Bft) O 80 0 min 0 W/m 9,5 C 13,5 C 15,8 km/h (3 Bft)
14.09.2008 12:25 17,5 C 62 % 1026,5 hPa 0,0 l/m 11,4 km/h (2 Bft) O-SO 110 0 min 0 W/m 10,1 C 15,4 C 11,4 km/h (2 Bft)
14.09.2008 12:29 17,7 C 61 % 1026,5 hPa 0,0 l/m 19,0 km/h (3 Bft) O 90 0 min 0 W/m 10,1 C 13,5 C 19,0 km/h (3 Bft)
14.09.2008 12:34 18,1 C 62 % 1026,5 hPa 0,0 l/m 14,3 km/h (3 Bft) NO 50 0 min 0 W/m 10,7 C 15,1 C 14,3 km/h (3 Bft)
14.09.2008 12:40 18,3 C 61 % 1026,5 hPa 0,0 l/m 12,1 km/h (2 Bft) O 90 0 min 0 W/m 10,6 C 16,0 C 12,1 km/h (2 Bft)
14.09.2008 12:44 18,0 C 59 % 1026,5 hPa 0,0 l/m 16,6 km/h (3 Bft) O 85 0 min 0 W/m 9,9 C 14,4 C 16,6 km/h (3 Bft)
14.09.2008 12:49 17,7 C 61 % 1026,5 hPa 0,0 l/m 10,0 km/h (2 Bft) O 95 0 min 0 W/m 10,1 C 16,1 C 10,0 km/h (2 Bft)
14.09.2008 12:54 17,8 C 61 % 1026,5 hPa 0,0 l/m 8,0 km/h (2 Bft) O-NO 65 0 min 0 W/m 10,2 C 17,0 C 8,0 km/h (2 Bft)
14.09.2008 12:59 18,0 C 61 % 1026,5 hPa 0,0 l/m 13,1 km/h (3 Bft) O-NO 70 0 min 0 W/m 10,4 C 15,4 C 13,1 km/h (3 Bft)
14.09.2008 13:04 18,2 C 60 % 1026,5 hPa 0,0 l/m 12,1 km/h (2 Bft) NO 45 0 min 0 W/m 10,3 C 15,9 C 12,1 km/h (2 Bft)
14.09.2008 13:09 18,2 C 60 % 1026,5 hPa 0,0 l/m 9,5 km/h (2 Bft) O-NO 75 0 min 0 W/m 10,3 C 16,8 C 9,5 km/h (2 Bft)
14.09.2008 13:14 18,1 C 60 % 1026,5 hPa 0,0 l/m 12,8 km/h (3 Bft) NO 50 0 min 0 W/m 10,2 C 15,6 C 12,8 km/h (3 Bft)
14.09.2008 13:19 17,7 C 59 % 1025,5 hPa 0,0 l/m 14,8 km/h (3 Bft) NO 35 0 min 0 W/m 9,6 C 14,5 C 14,8 km/h (3 Bft)
14.09.2008 13:24 17,7 C 60 % 1025,5 hPa 0,0 l/m 14,8 km/h (3 Bft) NO 35 0 min 0 W/m 9,8 C 14,5 C 14,8 km/h (3 Bft)
14.09.2008 13:30 17,9 C 62 % 1025,5 hPa 0,0 l/m 15,6 km/h (3 Bft) NO 50 0 min 0 W/m 10,5 C 14,5 C 15,6 km/h (3 Bft)
14.09.2008 13:35 18,4 C 61 % 1025,5 hPa 0,0 l/m 10,7 km/h (2 Bft) NO 50 0 min 0 W/m 10,7 C 16,6 C 10,7 km/h (2 Bft)
14.09.2008 13:40 18,7 C 59 % 1025,5 hPa 0,0 l/m 16,8 km/h (3 Bft) NO 45 0 min 0 W/m 10,5 C 15,2 C 16,8 km/h (3 Bft)
14.09.2008 13:44 18,7 C 57 % 1025,5 hPa 0,0 l/m 16,1 km/h (3 Bft) O 80 0 min 0 W/m 10,0 C 15,4 C 16,1 km/h (3 Bft)
14.09.2008 13:49 18,8 C 58 % 1025,5 hPa 0,0 l/m 11,1 km/h (2 Bft) O-NO 65 0 min 0 W/m 10,4 C 16,9 C 11,1 km/h (2 Bft)
14.09.2008 13:54 19,1 C 58 % 1025,5 hPa 0,0 l/m 13,1 km/h (3 Bft) O-NO 70 0 min 0 W/m 10,6 C 16,7 C 13,1 km/h (3 Bft)
14.09.2008 13:59 19,0 C 58 % 1025,5 hPa 0,0 l/m 10,1 km/h (2 Bft) N 5 0 min 0 W/m 10,5 C 17,5 C 10,1 km/h (2 Bft)
14.09.2008 14:04 19,1 C 58 % 1025,5 hPa 0,0 l/m 14,4 km/h (3 Bft) N-NO 30 0 min 0 W/m 10,6 C 16,3 C 14,4 km/h (3 Bft)
14.09.2008 14:09 19,0 C 58 % 1025,5 hPa 0,0 l/m 14,7 km/h (3 Bft) N-NO 15 0 min 0 W/m 10,5 C 16,1 C 14,7 km/h (3 Bft)
14.09.2008 14:14 19,0 C 58 % 1025,5 hPa 0,0 l/m 13,2 km/h (3 Bft) NO 35 0 min 0 W/m 10,5 C 16,5 C 13,2 km/h (3 Bft)
14.09.2008 14:19 18,9 C 57 % 1025,5 hPa 0,0 l/m 14,4 km/h (3 Bft) O-NO 60 0 min 0 W/m 10,2 C 16,1 C 14,4 km/h (3 Bft)
14.09.2008 14:24 17,8 C 60 % 1025,5 hPa 0,0 l/m 12,1 km/h (2 Bft) O-NO 60 0 min 0 W/m 9,9 C 15,5 C 12,1 km/h (2 Bft)
14.09.2008 14:29 17,3 C 61 % 1025,5 hPa 0,0 l/m 11,5 km/h (2 Bft) NO 35 0 min 0 W/m 9,7 C 15,1 C 11,5 km/h (2 Bft)
14.09.2008 14:35 17,2 C 61 % 1025,5 hPa 0,0 l/m 14,3 km/h (3 Bft) NO 40 0 min 0 W/m 9,6 C 14,1 C 14,3 km/h (3 Bft)
14.09.2008 14:40 17,5 C 62 % 1025,5 hPa 0,0 l/m 18,3 km/h (3 Bft) NO 50 0 min 0 W/m 10,1 C 13,4 C 18,3 km/h (3 Bft)
14.09.2008 14:44 17,6 C 61 % 1025,5 hPa 0,0 l/m 13,0 km/h (3 Bft) NO 50 0 min 0 W/m 10,0 C 14,9 C 13,0 km/h (3 Bft)
14.09.2008 14:49 17,6 C 61 % 1025,5 hPa 0,0 l/m 15,5 km/h (3 Bft) N-NO 25 0 min 0 W/m 10,0 C 14,2 C 15,5 km/h (3 Bft)
14.09.2008 14:54 17,5 C 61 % 1025,5 hPa 0,0 l/m 13,1 km/h (3 Bft) N-NO 30 0 min 0 W/m 9,9 C 14,8 C 13,1 km/h (3 Bft)
14.09.2008 14:59 17,0 C 61 % 1025,5 hPa 0,0 l/m 11,9 km/h (2 Bft) O-NO 60 0 min 0 W/m 9,4 C 14,6 C 11,9 km/h (2 Bft)
14.09.2008 15:04 16,8 C 63 % 1025,5 hPa 0,0 l/m 10,2 km/h (2 Bft) O-SO 115 0 min 0 W/m 9,7 C 15,0 C 10,2 km/h (2 Bft)
14.09.2008 15:09 16,4 C 63 % 1025,5 hPa 0,0 l/m 10,0 km/h (2 Bft) O 95 0 min 0 W/m 9,3 C 14,7 C 10,0 km/h (2 Bft)
14.09.2008 15:14 16,4 C 64 % 1025,5 hPa 0,0 l/m 11,5 km/h (2 Bft) NO 40 0 min 0 W/m 9,6 C 14,1 C 11,5 km/h (2 Bft)
14.09.2008 15:19 16,4 C 64 % 1025,5 hPa 0,0 l/m 10,5 km/h (2 Bft) N-NO 25 0 min 0 W/m 9,6 C 14,5 C 10,5 km/h (2 Bft)
14.09.2008 15:24 16,4 C 64 % 1025,5 hPa 0,0 l/m 13,4 km/h (3 Bft) O-NO 65 0 min 0 W/m 9,6 C 13,4 C 13,4 km/h (3 Bft)
14.09.2008 15:29 16,2 C 64 % 1025,5 hPa 0,0 l/m 6,7 km/h (2 Bft) O 90 0 min 0 W/m 9,4 C 16,1 C 6,7 km/h (2 Bft)
14.09.2008 15:35 16,3 C 63 % 1025,5 hPa 0,0 l/m 7,8 km/h (2 Bft) O-NO 60 0 min 0 W/m 9,2 C 15,6 C 7,8 km/h (2 Bft)
14.09.2008 15:40 16,2 C 64 % 1025,5 hPa 0,0 l/m 9,7 km/h (2 Bft) O-NO 75 0 min 0 W/m 9,4 C 14,6 C 9,7 km/h (2 Bft)
14.09.2008 15:44 16,3 C 65 % 1025,5 hPa 0,0 l/m 10,7 km/h (2 Bft) NO 35 0 min 0 W/m 9,7 C 14,3 C 10,7 km/h (2 Bft)
14.09.2008 15:49 16,4 C 65 % 1025,5 hPa 0,0 l/m 11,1 km/h (2 Bft) O-NO 60 0 min 0 W/m 9,8 C 14,2 C 11,1 km/h (2 Bft)
14.09.2008 15:54 16,4 C 65 % 1025,5 hPa 0,0 l/m 9,4 km/h (2 Bft) N-NO 25 0 min 0 W/m 9,8 C 14,9 C 9,4 km/h (2 Bft)
14.09.2008 15:59 16,7 C 65 % 1025,5 hPa 0,0 l/m 7,7 km/h (2 Bft) O-NO 65 0 min 0 W/m 10,1 C 16,0 C 7,7 km/h (2 Bft)
14.09.2008 16:04 17,1 C 63 % 1025,5 hPa 0,0 l/m 7,7 km/h (2 Bft) O-NO 65 0 min 0 W/m 10,0 C 16,5 C 7,7 km/h (2 Bft)
14.09.2008 16:09 17,3 C 62 % 1025,5 hPa 0,0 l/m 10,0 km/h (2 Bft) N-NO 20 0 min 0 W/m 9,9 C 15,7 C 10,0 km/h (2 Bft)
14.09.2008 16:14 17,4 C 61 % 1025,5 hPa 0,0 l/m 14,4 km/h (3 Bft) NO 40 0 min 0 W/m 9,8 C 14,3 C 14,4 km/h (3 Bft)
14.09.2008 16:19 17,2 C 59 % 1025,5 hPa 0,0 l/m 15,7 km/h (3 Bft) NO 55 0 min 0 W/m 9,1 C 13,7 C 15,7 km/h (3 Bft)
14.09.2008 16:24 17,1 C 60 % 1025,5 hPa 0,0 l/m 11,2 km/h (2 Bft) N-NO 20 0 min 0 W/m 9,3 C 15,0 C 11,2 km/h (2 Bft)
14.09.2008 16:29 17,0 C 60 % 1025,5 hPa 0,0 l/m 15,7 km/h (3 Bft) O 80 0 min 0 W/m 9,2 C 13,4 C 15,7 km/h (3 Bft)
14.09.2008 16:35 17,2 C 60 % 1025,5 hPa 0,0 l/m 14,0 km/h (3 Bft) N-NO 20 0 min 0 W/m 9,4 C 14,2 C 14,0 km/h (3 Bft)
14.09.2008 16:40 17,2 C 59 % 1025,5 hPa 0,0 l/m 17,1 km/h (3 Bft) N-NO 15 0 min 0 W/m 9,1 C 13,3 C 17,1 km/h (3 Bft)
14.09.2008 16:44 17,2 C 59 % 1025,5 hPa 0,0 l/m 14,6 km/h (3 Bft) O-NO 60 0 min 0 W/m 9,1 C 14,0 C 14,6 km/h (3 Bft)
14.09.2008 16:49 17,2 C 59 % 1025,5 hPa 0,0 l/m 16,8 km/h (3 Bft) O-NO 65 0 min 0 W/m 9,1 C 13,4 C 16,8 km/h (3 Bft)
14.09.2008 16:54 17,2 C 57 % 1025,5 hPa 0,0 l/m 12,1 km/h (2 Bft) NO 45 0 min 0 W/m 8,6 C 14,8 C 12,1 km/h (2 Bft)
14.09.2008 16:59 17,1 C 58 % 1025,5 hPa 0,0 l/m 14,8 km/h (3 Bft) O-NO 65 0 min 0 W/m 8,8 C 13,8 C 14,8 km/h (3 Bft)
14.09.2008 17:04 16,8 C 60 % 1025,5 hPa 0,0 l/m 13,6 km/h (3 Bft) NO 35 0 min 0 W/m 9,0 C 13,8 C 13,6 km/h (3 Bft)
14.09.2008 17:09 16,8 C 60 % 1025,5 hPa 0,0 l/m 14,5 km/h (3 Bft) NO 45 0 min 0 W/m 9,0 C 13,5 C 14,5 km/h (3 Bft)
14.09.2008 17:14 16,8 C 60 % 1025,5 hPa 0,0 l/m 13,6 km/h (3 Bft) NO 35 0 min 0 W/m 9,0 C 13,8 C 13,6 km/h (3 Bft)
14.09.2008 17:19 16,7 C 56 % 1025,5 hPa 0,0 l/m 16,3 km/h (3 Bft) NO 50 0 min 0 W/m 7,9 C 12,9 C 16,3 km/h (3 Bft)
14.09.2008 17:24 16,5 C 58 % 1025,5 hPa 0,0 l/m 18,0 km/h (3 Bft) N-NO 25 0 min 0 W/m 8,2 C 12,2 C 18,0 km/h (3 Bft)
14.09.2008 17:30 16,3 C 60 % 1025,5 hPa 0,0 l/m 14,0 km/h (3 Bft) N 5 0 min 0 W/m 8,5 C 13,1 C 14,0 km/h (3 Bft)
14.09.2008 17:35 16,3 C 60 % 1025,5 hPa 0,0 l/m 15,0 km/h (3 Bft) NO 45 0 min 0 W/m 8,5 C 12,8 C 15,0 km/h (3 Bft)
14.09.2008 17:40 16,4 C 60 % 1025,5 hPa 0,0 l/m 15,4 km/h (3 Bft) NO 55 0 min 0 W/m 8,6 C 12,8 C 15,4 km/h (3 Bft)
14.09.2008 17:44 16,4 C 61 % 1025,5 hPa 0,0 l/m 11,8 km/h (2 Bft) O 80 0 min 0 W/m 8,9 C 14,0 C 11,8 km/h (2 Bft)
14.09.2008 17:49 16,4 C 61 % 1025,5 hPa 0,0 l/m 9,1 km/h (2 Bft) NO 45 0 min 0 W/m 8,9 C 15,1 C 9,1 km/h (2 Bft)
14.09.2008 17:54 16,4 C 61 % 1025,5 hPa 0,0 l/m 9,6 km/h (2 Bft) N-NO 25 0 min 0 W/m 8,9 C 14,8 C 9,6 km/h (2 Bft)
14.09.2008 17:59 16,5 C 61 % 1025,5 hPa 0,0 l/m 10,8 km/h (2 Bft) NO 35 0 min 0 W/m 9,0 C 14,5 C 10,8 km/h (2 Bft)
14.09.2008 18:04 16,4 C 59 % 1025,5 hPa 0,0 l/m 22,1 km/h (4 Bft) O 90 0 min 0 W/m 8,4 C 11,1 C 22,1 km/h (4 Bft)
14.09.2008 18:09 16,2 C 61 % 1025,5 hPa 0,0 l/m 14,0 km/h (3 Bft) N-NO 20 0 min 0 W/m 8,7 C 13,0 C 14,0 km/h (3 Bft)
14.09.2008 18:14 16,1 C 61 % 1025,5 hPa 0,0 l/m 15,0 km/h (3 Bft) NO 55 0 min 0 W/m 8,6 C 12,5 C 15,0 km/h (3 Bft)
14.09.2008 18:19 15,9 C 62 % 1025,5 hPa 0,0 l/m 12,0 km/h (2 Bft) O-NO 75 0 min 0 W/m 8,6 C 13,3 C 12,0 km/h (2 Bft)
14.09.2008 18:24 15,7 C 63 % 1025,5 hPa 0,0 l/m 12,1 km/h (2 Bft) O-NO 70 0 min 0 W/m 8,7 C 13,0 C 12,1 km/h (2 Bft)
14.09.2008 18:30 15,6 C 64 % 1025,5 hPa 0,0 l/m 10,5 km/h (2 Bft) NO 55 0 min 0 W/m 8,8 C 13,6 C 10,5 km/h (2 Bft)
14.09.2008 18:35 15,4 C 64 % 1025,5 hPa 0,0 l/m 11,3 km/h (2 Bft) NO 45 0 min 0 W/m 8,6 C 13,0 C 11,3 km/h (2 Bft)
14.09.2008 18:39 15,4 C 65 % 1025,5 hPa 0,0 l/m 10,8 km/h (2 Bft) NO 55 0 min 0 W/m 8,9 C 13,2 C 10,8 km/h (2 Bft)
14.09.2008 18:44 15,3 C 65 % 1025,5 hPa 0,0 l/m 17,1 km/h (3 Bft) NO 35 0 min 0 W/m 8,8 C 10,9 C 17,1 km/h (3 Bft)
14.09.2008 18:49 15,2 C 65 % 1025,5 hPa 0,0 l/m 12,5 km/h (2 Bft) NO 45 0 min 0 W/m 8,7 C 12,3 C 12,5 km/h (2 Bft)
14.09.2008 18:54 15,1 C 65 % 1025,5 hPa 0,0 l/m 17,1 km/h (3 Bft) NO 35 0 min 0 W/m 8,6 C 10,7 C 17,1 km/h (3 Bft)
14.09.2008 19:00 15,0 C 66 % 1025,5 hPa 0,0 l/m 20,4 km/h (4 Bft) NO 55 0 min 0 W/m 8,7 C 9,6 C 20,4 km/h (4 Bft)
14.09.2008 19:04 15,0 C 66 % 1025,5 hPa 0,0 l/m 13,6 km/h (3 Bft) NO 50 0 min 0 W/m 8,7 C 11,7 C 13,6 km/h (3 Bft)
14.09.2008 19:09 15,0 C 66 % 1025,5 hPa 0,0 l/m 16,1 km/h (3 Bft) NO 45 0 min 0 W/m 8,7 C 10,8 C 16,1 km/h (3 Bft)
14.09.2008 19:14 15,0 C 67 % 1025,5 hPa 0,0 l/m 15,3 km/h (3 Bft) NO 50 0 min 0 W/m 8,9 C 11,1 C 15,3 km/h (3 Bft)
14.09.2008 19:20 15,0 C 68 % 1025,5 hPa 0,0 l/m 11,4 km/h (2 Bft) O-NO 60 0 min 0 W/m 9,1 C 12,5 C 11,4 km/h (2 Bft)
14.09.2008 19:25 15,0 C 68 % 1025,5 hPa 0,0 l/m 12,8 km/h (3 Bft) N-NW 335 0 min 0 W/m 9,1 C 12,0 C 12,8 km/h (3 Bft)
14.09.2008 19:30 15,0 C 69 % 1026,5 hPa 0,0 l/m 21,6 km/h (4 Bft) SO 140 0 min 0 W/m 9,4 C 9,4 C 21,6 km/h (4 Bft)
14.09.2008 19:34 15,0 C 73 % 1026,5 hPa 0,0 l/m 25,0 km/h (4 Bft) SO 135 0 min 0 W/m 10,2 C 8,6 C 25,0 km/h (4 Bft)
14.09.2008 19:39 14,4 C 75 % 1026,5 hPa 0,0 l/m 19,5 km/h (3 Bft) O-SO 115 0 min 0 W/m 10,0 C 9,1 C 19,5 km/h (3 Bft)
14.09.2008 19:44 14,2 C 76 % 1026,5 hPa 0,0 l/m 24,3 km/h (4 Bft) O-SO 115 0 min 0 W/m 10,0 C 7,7 C 24,3 km/h (4 Bft)
14.09.2008 19:49 13,9 C 77 % 1026,5 hPa 0,0 l/m 10,3 km/h (2 Bft) NO 55 0 min 0 W/m 9,9 C 11,8 C 10,3 km/h (2 Bft)
14.09.2008 19:55 13,9 C 79 % 1026,5 hPa 0,0 l/m 7,5 km/h (2 Bft) NO 45 0 min 0 W/m 10,3 C 13,2 C 7,5 km/h (2 Bft)
14.09.2008 20:00 13,9 C 80 % 1026,5 hPa 0,0 l/m 13,9 km/h (3 Bft) NO 35 0 min 0 W/m 10,5 C 10,3 C 13,9 km/h (3 Bft)
14.09.2008 20:04 13,8 C 80 % 1026,5 hPa 0,0 l/m 12,4 km/h (2 Bft) O-NO 70 0 min 0 W/m 10,4 C 10,7 C 12,4 km/h (2 Bft)
14.09.2008 20:09 13,6 C 80 % 1026,5 hPa 0,0 l/m 20,0 km/h (4 Bft) O-NO 75 0 min 0 W/m 10,2 C 7,9 C 20,0 km/h (4 Bft)
14.09.2008 20:15 13,6 C 81 % 1026,5 hPa 0,0 l/m 14,0 km/h (3 Bft) O-NO 65 0 min 0 W/m 10,4 C 9,9 C 14,0 km/h (3 Bft)
14.09.2008 20:20 13,7 C 81 % 1026,5 hPa 0,0 l/m 14,1 km/h (3 Bft) O 90 0 min 0 W/m 10,5 C 9,9 C 14,1 km/h (3 Bft)
14.09.2008 20:25 13,8 C 80 % 1026,5 hPa 0,0 l/m 11,5 km/h (2 Bft) O-NO 65 0 min 0 W/m 10,4 C 11,1 C 11,5 km/h (2 Bft)
14.09.2008 20:29 13,9 C 80 % 1026,5 hPa 0,0 l/m 11,5 km/h (2 Bft) O-NO 65 0 min 0 W/m 10,5 C 11,2 C 11,5 km/h (2 Bft)
14.09.2008 20:34 13,9 C 79 % 1026,5 hPa 0,0 l/m 20,0 km/h (4 Bft) O-NO 65 0 min 0 W/m 10,3 C 8,3 C 20,0 km/h (4 Bft)
14.09.2008 20:39 14,0 C 79 % 1026,5 hPa 0,0 l/m 10,5 km/h (2 Bft) O-NO 75 0 min 0 W/m 10,4 C 11,8 C 10,5 km/h (2 Bft)
14.09.2008 20:44 13,8 C 78 % 1026,5 hPa 0,0 l/m 7,8 km/h (2 Bft) N-NO 20 0 min 0 W/m 10,0 C 13,0 C 7,8 km/h (2 Bft)
14.09.2008 20:50 13,8 C 79 % 1026,5 hPa 0,0 l/m 11,0 km/h (2 Bft) NW 310 0 min 0 W/m 10,2 C 11,3 C 11,0 km/h (2 Bft)
14.09.2008 20:55 13,8 C 80 % 1026,5 hPa 0,0 l/m 5,7 km/h (2 Bft) O-NO 60 0 min 0 W/m 10,4 C 13,8 C 5,7 km/h (2 Bft)
14.09.2008 21:00 13,9 C 79 % 1026,5 hPa 0,0 l/m 6,9 km/h (2 Bft) NO 55 0 min 0 W/m 10,3 C 13,6 C 6,9 km/h (2 Bft)
14.09.2008 21:04 14,0 C 80 % 1026,5 hPa 0,0 l/m 13,4 km/h (3 Bft) NO 35 0 min 0 W/m 10,6 C 10,6 C 13,4 km/h (3 Bft)
14.09.2008 21:10 13,9 C 79 % 1026,5 hPa 0,0 l/m 12,1 km/h (2 Bft) N-NO 20 0 min 0 W/m 10,3 C 11,0 C 12,1 km/h (2 Bft)
14.09.2008 21:15 13,9 C 80 % 1026,5 hPa 0,0 l/m 11,7 km/h (2 Bft) NO 45 0 min 0 W/m 10,5 C 11,1 C 11,7 km/h (2 Bft)
14.09.2008 21:20 13,9 C 80 % 1026,5 hPa 0,0 l/m 10,6 km/h (2 Bft) NO 50 0 min 0 W/m 10,5 C 11,6 C 10,6 km/h (2 Bft)
14.09.2008 21:24 13,9 C 80 % 1026,5 hPa 0,0 l/m 17,4 km/h (3 Bft) NO 45 0 min 0 W/m 10,5 C 9,1 C 17,4 km/h (3 Bft)
14.09.2008 21:29 13,8 C 80 % 1026,5 hPa 0,0 l/m 10,6 km/h (2 Bft) N-NO 30 0 min 0 W/m 10,4 C 11,5 C 10,6 km/h (2 Bft)
14.09.2008 21:34 13,9 C 80 % 1026,5 hPa 0,0 l/m 12,5 km/h (2 Bft) N-NO 30 0 min 0 W/m 10,5 C 10,8 C 12,5 km/h (2 Bft)
14.09.2008 21:40 13,9 C 80 % 1026,5 hPa 0,0 l/m 10,6 km/h (2 Bft) NO 40 0 min 0 W/m 10,5 C 11,6 C 10,6 km/h (2 Bft)
14.09.2008 21:45 13,9 C 81 % 1026,5 hPa 0,0 l/m 12,6 km/h (3 Bft) NO 45 0 min 0 W/m 10,7 C 10,8 C 12,6 km/h (3 Bft)
14.09.2008 21:50 14,0 C 81 % 1026,5 hPa 0,0 l/m 10,7 km/h (2 Bft) O 90 0 min 0 W/m 10,8 C 11,7 C 10,7 km/h (2 Bft)
14.09.2008 21:54 14,0 C 81 % 1026,5 hPa 0,0 l/m 13,6 km/h (3 Bft) O-NO 60 0 min 0 W/m 10,8 C 10,5 C 13,6 km/h (3 Bft)
14.09.2008 21:59 13,8 C 81 % 1026,5 hPa 0,0 l/m 10,8 km/h (2 Bft) NO 55 0 min 0 W/m 10,6 C 11,4 C 10,8 km/h (2 Bft)
14.09.2008 22:04 13,8 C 82 % 1026,5 hPa 0,0 l/m 13,6 km/h (3 Bft) O-NO 70 0 min 0 W/m 10,8 C 10,2 C 13,6 km/h (3 Bft)
14.09.2008 22:10 13,9 C 82 % 1026,5 hPa 0,0 l/m 16,0 km/h (3 Bft) NO 45 0 min 0 W/m 10,9 C 9,5 C 16,0 km/h (3 Bft)
14.09.2008 22:14 13,9 C 82 % 1026,5 hPa 0,0 l/m 10,0 km/h (2 Bft) N 10 0 min 0 W/m 10,9 C 11,9 C 10,0 km/h (2 Bft)
14.09.2008 22:19 14,0 C 81 % 1026,5 hPa 0,0 l/m 12,8 km/h (3 Bft) NO 55 0 min 0 W/m 10,8 C 10,8 C 12,8 km/h (3 Bft)
14.09.2008 22:24 13,9 C 81 % 1026,5 hPa 0,0 l/m 12,8 km/h (3 Bft) NO 50 0 min 0 W/m 10,7 C 10,7 C 12,8 km/h (3 Bft)
14.09.2008 22:29 13,8 C 81 % 1026,5 hPa 0,0 l/m 11,4 km/h (2 Bft) N-NO 30 0 min 0 W/m 10,6 C 11,1 C 11,4 km/h (2 Bft)
14.09.2008 22:35 13,7 C 82 % 1026,5 hPa 0,0 l/m 13,2 km/h (3 Bft) O-NO 75 0 min 0 W/m 10,7 C 10,3 C 13,2 km/h (3 Bft)
14.09.2008 22:40 13,6 C 82 % 1026,5 hPa 0,0 l/m 14,3 km/h (3 Bft) NO 55 0 min 0 W/m 10,6 C 9,7 C 14,3 km/h (3 Bft)
14.09.2008 22:45 13,6 C 82 % 1026,5 hPa 0,0 l/m 10,1 km/h (2 Bft) O 80 0 min 0 W/m 10,6 C 11,5 C 10,1 km/h (2 Bft)
14.09.2008 22:49 13,6 C 82 % 1026,5 hPa 0,0 l/m 11,6 km/h (2 Bft) O-NO 60 0 min 0 W/m 10,6 C 10,8 C 11,6 km/h (2 Bft)
14.09.2008 22:54 13,6 C 82 % 1026,5 hPa 0,0 l/m 15,5 km/h (3 Bft) O-NO 65 0 min 0 W/m 10,6 C 9,3 C 15,5 km/h (3 Bft)
14.09.2008 22:59 13,5 C 82 % 1026,5 hPa 0,0 l/m 9,6 km/h (2 Bft) NO 35 0 min 0 W/m 10,5 C 11,7 C 9,6 km/h (2 Bft)
14.09.2008 23:05 13,5 C 83 % 1026,5 hPa 0,0 l/m 9,8 km/h (2 Bft) O-NO 70 0 min 0 W/m 10,7 C 11,6 C 9,8 km/h (2 Bft)
14.09.2008 23:09 13,6 C 83 % 1026,5 hPa 0,0 l/m 10,8 km/h (2 Bft) O-NO 65 0 min 0 W/m 10,8 C 11,2 C 10,8 km/h (2 Bft)
14.09.2008 23:14 13,6 C 83 % 1026,5 hPa 0,0 l/m 9,0 km/h (2 Bft) O 90 0 min 0 W/m 10,8 C 12,1 C 9,0 km/h (2 Bft)
14.09.2008 23:19 13,7 C 83 % 1026,5 hPa 0,0 l/m 5,9 km/h (2 Bft) N-NO 15 0 min 0 W/m 10,9 C 13,7 C 5,9 km/h (2 Bft)
14.09.2008 23:25 13,6 C 83 % 1026,5 hPa 0,0 l/m 8,9 km/h (2 Bft) O-NO 65 0 min 0 W/m 10,8 C 12,1 C 8,9 km/h (2 Bft)
14.09.2008 23:30 13,6 C 83 % 1026,5 hPa 0,0 l/m 12,7 km/h (3 Bft) NO 40 0 min 0 W/m 10,8 C 10,4 C 12,7 km/h (3 Bft)
14.09.2008 23:35 13,6 C 83 % 1026,5 hPa 0,0 l/m 8,7 km/h (2 Bft) N-NO 25 0 min 0 W/m 10,8 C 12,2 C 8,7 km/h (2 Bft)
14.09.2008 23:39 13,6 C 83 % 1026,5 hPa 0,0 l/m 10,3 km/h (2 Bft) NO 55 0 min 0 W/m 10,8 C 11,4 C 10,3 km/h (2 Bft)
14.09.2008 23:44 13,7 C 83 % 1026,5 hPa 0,0 l/m 8,1 km/h (2 Bft) O-SO 105 0 min 0 W/m 10,9 C 12,7 C 8,1 km/h (2 Bft)
14.09.2008 23:49 13,7 C 83 % 1026,5 hPa 0,0 l/m 15,6 km/h (3 Bft) NO 35 0 min 0 W/m 10,9 C 9,4 C 15,6 km/h (3 Bft)
14.09.2008 23:54 13,7 C 83 % 1026,5 hPa 0,0 l/m 18,7 km/h (3 Bft) NO 55 0 min 0 W/m 10,9 C 8,4 C 18,7 km/h (3 Bft)
_ Min-Zeit 07:44 17:19 00:04 - 07:25 - - - - 07:44 01:29 07:25
Minimum _ 9,7 C 56 % 1024,5 hPa - 0,0 km/h (0 Bft) - - - - 7,5 C 5,1 C 0,0 km/h (0 Bft)
_ Max-Zeit 13:54 08:09 07:44 00:04 19:34 - - 00:04 00:04 22:10 13:59 19:34
Maximum _ 19,1 C 88 % 1026,5 hPa 0,0 l/m 25,0 km/h
SO (4 Bft)
- - 0 min 0 W/m 10,9 C 17,5 C 25,0 km/h
SO (4 Bft)
Durchschnitt _ 13,8 C 75 % 1025,8 hPa #0,0 l/m 11,0 km/h (2 Bft) NO - #0 min. 0 W/m 9,3 C 11,4 C 11,0 km/h (2 Bft)
copyright by Holger Just